sensor_id;sensor_type;location;lat;lon;timestamp;P1;durP1;ratioP1;P2;durP2;ratioP2
8488;SDS011;4281;45.772;12.852;2023-04-15T00:01:04;2.50;;;2.30;;
8488;SDS011;4281;45.772;12.852;2023-04-15T00:03:32;2.30;;;2.20;;
8488;SDS011;4281;45.772;12.852;2023-04-15T00:06:00;2.30;;;2.10;;
8488;SDS011;4281;45.772;12.852;2023-04-15T00:08:29;2.10;;;2.00;;
8488;SDS011;4281;45.772;12.852;2023-04-15T00:10:57;2.70;;;2.10;;
8488;SDS011;4281;45.772;12.852;2023-04-15T00:13:29;3.73;;;2.40;;
8488;SDS011;4281;45.772;12.852;2023-04-15T00:15:58;2.70;;;2.43;;
8488;SDS011;4281;45.772;12.852;2023-04-15T00:18:25;2.27;;;2.13;;
8488;SDS011;4281;45.772;12.852;2023-04-15T00:20:54;3.40;;;3.17;;
8488;SDS011;4281;45.772;12.852;2023-04-15T00:23:22;3.60;;;3.30;;
8488;SDS011;4281;45.772;12.852;2023-04-15T00:25:50;3.33;;;3.13;;
8488;SDS011;4281;45.772;12.852;2023-04-15T00:28:18;3.90;;;3.60;;
8488;SDS011;4281;45.772;12.852;2023-04-15T00:30:47;3.67;;;3.37;;
8488;SDS011;4281;45.772;12.852;2023-04-15T00:33:15;3.93;;;3.63;;
8488;SDS011;4281;45.772;12.852;2023-04-15T00:35:43;4.33;;;3.73;;
8488;SDS011;4281;45.772;12.852;2023-04-15T00:38:11;3.80;;;3.50;;
8488;SDS011;4281;45.772;12.852;2023-04-15T00:40:39;3.90;;;3.60;;
8488;SDS011;4281;45.772;12.852;2023-04-15T00:43:07;4.60;;;4.20;;
8488;SDS011;4281;45.772;12.852;2023-04-15T00:45:35;4.60;;;4.20;;
8488;SDS011;4281;45.772;12.852;2023-04-15T00:48:04;4.63;;;4.23;;
8488;SDS011;4281;45.772;12.852;2023-04-15T00:50:32;4.50;;;4.20;;
8488;SDS011;4281;45.772;12.852;2023-04-15T00:53:00;5.00;;;4.60;;
8488;SDS011;4281;45.772;12.852;2023-04-15T00:55:28;4.87;;;4.50;;
8488;SDS011;4281;45.772;12.852;2023-04-15T00:57:56;5.03;;;4.63;;
8488;SDS011;4281;45.772;12.852;2023-04-15T01:00:23;5.10;;;4.63;;
8488;SDS011;4281;45.772;12.852;2023-04-15T01:02:52;4.90;;;4.50;;
8488;SDS011;4281;45.772;12.852;2023-04-15T01:05:21;4.77;;;4.43;;
8488;SDS011;4281;45.772;12.852;2023-04-15T01:07:50;4.97;;;4.57;;
8488;SDS011;4281;45.772;12.852;2023-04-15T01:10:18;5.20;;;4.77;;
8488;SDS011;4281;45.772;12.852;2023-04-15T01:12:46;5.27;;;4.87;;
8488;SDS011;4281;45.772;12.852;2023-04-15T01:15:14;5.70;;;5.30;;
8488;SDS011;4281;45.772;12.852;2023-04-15T01:17:42;5.90;;;5.50;;
8488;SDS011;4281;45.772;12.852;2023-04-15T01:20:10;5.83;;;5.37;;
8488;SDS011;4281;45.772;12.852;2023-04-15T01:22:39;5.77;;;5.37;;
8488;SDS011;4281;45.772;12.852;2023-04-15T01:25:09;5.37;;;4.97;;
8488;SDS011;4281;45.772;12.852;2023-04-15T01:27:39;5.50;;;5.00;;
8488;SDS011;4281;45.772;12.852;2023-04-15T01:30:08;5.93;;;5.47;;
8488;SDS011;4281;45.772;12.852;2023-04-15T01:32:36;5.90;;;5.40;;
8488;SDS011;4281;45.772;12.852;2023-04-15T01:35:04;5.73;;;5.30;;
8488;SDS011;4281;45.772;12.852;2023-04-15T01:37:33;5.93;;;5.37;;
8488;SDS011;4281;45.772;12.852;2023-04-15T01:40:01;5.77;;;5.17;;
8488;SDS011;4281;45.772;12.852;2023-04-15T01:42:28;5.97;;;5.47;;
8488;SDS011;4281;45.772;12.852;2023-04-15T01:44:57;5.50;;;5.10;;
8488;SDS011;4281;45.772;12.852;2023-04-15T01:47:25;5.40;;;5.00;;
8488;SDS011;4281;45.772;12.852;2023-04-15T01:49:53;5.57;;;5.07;;
8488;SDS011;4281;45.772;12.852;2023-04-15T01:52:21;5.73;;;5.23;;
8488;SDS011;4281;45.772;12.852;2023-04-15T01:54:49;4.93;;;4.43;;
8488;SDS011;4281;45.772;12.852;2023-04-15T01:57:17;5.27;;;4.80;;
8488;SDS011;4281;45.772;12.852;2023-04-15T01:59:45;4.63;;;4.33;;
8488;SDS011;4281;45.772;12.852;2023-04-15T02:02:14;4.80;;;4.30;;
8488;SDS011;4281;45.772;12.852;2023-04-15T02:04:42;4.47;;;4.07;;
8488;SDS011;4281;45.772;12.852;2023-04-15T02:07:10;4.87;;;4.43;;
8488;SDS011;4281;45.772;12.852;2023-04-15T02:09:38;4.03;;;3.73;;
8488;SDS011;4281;45.772;12.852;2023-04-15T02:12:06;4.07;;;3.77;;
8488;SDS011;4281;45.772;12.852;2023-04-15T02:14:34;4.40;;;4.10;;
8488;SDS011;4281;45.772;12.852;2023-04-15T02:17:01;4.07;;;3.77;;
8488;SDS011;4281;45.772;12.852;2023-04-15T02:19:34;3.77;;;3.47;;
8488;SDS011;4281;45.772;12.852;2023-04-15T02:22:02;4.20;;;3.80;;
8488;SDS011;4281;45.772;12.852;2023-04-15T02:24:29;3.90;;;3.50;;
8488;SDS011;4281;45.772;12.852;2023-04-15T02:26:57;4.37;;;3.97;;
8488;SDS011;4281;45.772;12.852;2023-04-15T02:29:25;3.97;;;3.63;;
8488;SDS011;4281;45.772;12.852;2023-04-15T02:31:53;3.90;;;3.60;;
8488;SDS011;4281;45.772;12.852;2023-04-15T02:34:20;3.83;;;3.53;;
8488;SDS011;4281;45.772;12.852;2023-04-15T02:36:50;3.87;;;3.50;;
8488;SDS011;4281;45.772;12.852;2023-04-15T02:39:21;3.43;;;3.13;;
8488;SDS011;4281;45.772;12.852;2023-04-15T02:41:49;3.30;;;3.10;;
8488;SDS011;4281;45.772;12.852;2023-04-15T02:44:17;3.40;;;3.10;;
8488;SDS011;4281;45.772;12.852;2023-04-15T02:46:45;3.77;;;3.47;;
8488;SDS011;4281;45.772;12.852;2023-04-15T02:49:16;4.23;;;3.27;;
8488;SDS011;4281;45.772;12.852;2023-04-15T02:51:43;3.10;;;2.80;;
8488;SDS011;4281;45.772;12.852;2023-04-15T02:54:16;3.43;;;3.13;;
8488;SDS011;4281;45.772;12.852;2023-04-15T02:56:44;3.87;;;3.47;;
8488;SDS011;4281;45.772;12.852;2023-04-15T02:59:12;3.10;;;2.67;;
8488;SDS011;4281;45.772;12.852;2023-04-15T03:01:40;3.37;;;2.87;;
8488;SDS011;4281;45.772;12.852;2023-04-15T03:04:08;2.60;;;2.40;;
8488;SDS011;4281;45.772;12.852;2023-04-15T03:06:36;3.13;;;2.80;;
8488;SDS011;4281;45.772;12.852;2023-04-15T03:09:03;3.37;;;2.40;;
8488;SDS011;4281;45.772;12.852;2023-04-15T03:11:33;3.10;;;2.17;;
8488;SDS011;4281;45.772;12.852;2023-04-15T03:14:02;3.47;;;2.63;;
8488;SDS011;4281;45.772;12.852;2023-04-15T03:16:30;2.23;;;2.03;;
8488;SDS011;4281;45.772;12.852;2023-04-15T03:18:58;2.87;;;2.40;;
8488;SDS011;4281;45.772;12.852;2023-04-15T03:21:26;2.87;;;2.37;;
8488;SDS011;4281;45.772;12.852;2023-04-15T03:23:54;1.97;;;1.83;;
8488;SDS011;4281;45.772;12.852;2023-04-15T03:26:22;3.17;;;2.07;;
8488;SDS011;4281;45.772;12.852;2023-04-15T03:28:52;2.30;;;2.10;;
8488;SDS011;4281;45.772;12.852;2023-04-15T03:31:20;3.00;;;2.30;;
8488;SDS011;4281;45.772;12.852;2023-04-15T03:33:48;2.37;;;2.17;;
8488;SDS011;4281;45.772;12.852;2023-04-15T03:36:16;2.37;;;2.10;;
8488;SDS011;4281;45.772;12.852;2023-04-15T03:41:23;2.60;;;2.40;;
8488;SDS011;4281;45.772;12.852;2023-04-15T03:43:53;3.10;;;2.80;;
8488;SDS011;4281;45.772;12.852;2023-04-15T03:46:20;2.90;;;2.70;;
8488;SDS011;4281;45.772;12.852;2023-04-15T03:48:48;2.97;;;2.17;;
8488;SDS011;4281;45.772;12.852;2023-04-15T03:51:16;2.30;;;2.10;;
8488;SDS011;4281;45.772;12.852;2023-04-15T03:53:44;2.63;;;2.33;;
8488;SDS011;4281;45.772;12.852;2023-04-15T03:56:12;2.40;;;2.20;;
8488;SDS011;4281;45.772;12.852;2023-04-15T03:58:39;2.87;;;2.57;;
8488;SDS011;4281;45.772;12.852;2023-04-15T04:01:09;3.17;;;2.23;;
8488;SDS011;4281;45.772;12.852;2023-04-15T04:03:37;4.60;;;2.90;;
8488;SDS011;4281;45.772;12.852;2023-04-15T04:06:05;2.77;;;2.50;;
8488;SDS011;4281;45.772;12.852;2023-04-15T04:08:33;2.80;;;2.60;;
8488;SDS011;4281;45.772;12.852;2023-04-15T04:11:00;3.43;;;2.43;;
8488;SDS011;4281;45.772;12.852;2023-04-15T04:13:28;3.00;;;2.67;;
8488;SDS011;4281;45.772;12.852;2023-04-15T04:15:56;3.07;;;2.77;;
8488;SDS011;4281;45.772;12.852;2023-04-15T04:18:25;3.50;;;3.20;;
8488;SDS011;4281;45.772;12.852;2023-04-15T04:20:53;3.53;;;3.23;;
8488;SDS011;4281;45.772;12.852;2023-04-15T04:23:21;3.80;;;2.93;;
8488;SDS011;4281;45.772;12.852;2023-04-15T04:25:49;2.97;;;2.70;;
8488;SDS011;4281;45.772;12.852;2023-04-15T04:28:17;2.83;;;2.63;;
8488;SDS011;4281;45.772;12.852;2023-04-15T04:30:45;3.37;;;3.07;;
8488;SDS011;4281;45.772;12.852;2023-04-15T04:33:13;3.53;;;3.20;;
8488;SDS011;4281;45.772;12.852;2023-04-15T04:35:42;2.67;;;2.47;;
8488;SDS011;4281;45.772;12.852;2023-04-15T04:38:10;3.00;;;2.70;;
8488;SDS011;4281;45.772;12.852;2023-04-15T04:40:38;2.40;;;2.20;;
8488;SDS011;4281;45.772;12.852;2023-04-15T04:43:06;2.50;;;2.30;;
8488;SDS011;4281;45.772;12.852;2023-04-15T04:45:34;3.27;;;2.20;;
8488;SDS011;4281;45.772;12.852;2023-04-15T04:48:02;2.60;;;2.30;;
8488;SDS011;4281;45.772;12.852;2023-04-15T04:50:32;2.53;;;2.33;;
8488;SDS011;4281;45.772;12.852;2023-04-15T04:53:01;2.53;;;2.10;;
8488;SDS011;4281;45.772;12.852;2023-04-15T04:55:29;3.13;;;1.97;;
8488;SDS011;4281;45.772;12.852;2023-04-15T04:57:58;1.93;;;1.83;;
8488;SDS011;4281;45.772;12.852;2023-04-15T05:00:25;2.60;;;2.40;;
8488;SDS011;4281;45.772;12.852;2023-04-15T05:02:53;2.40;;;2.20;;
8488;SDS011;4281;45.772;12.852;2023-04-15T05:05:21;2.00;;;1.90;;
8488;SDS011;4281;45.772;12.852;2023-04-15T05:07:49;2.47;;;2.27;;
8488;SDS011;4281;45.772;12.852;2023-04-15T05:10:18;2.73;;;2.10;;
8488;SDS011;4281;45.772;12.852;2023-04-15T05:12:46;2.53;;;2.33;;
8488;SDS011;4281;45.772;12.852;2023-04-15T05:15:14;2.90;;;2.40;;
8488;SDS011;4281;45.772;12.852;2023-04-15T05:17:42;3.03;;;2.80;;
8488;SDS011;4281;45.772;12.852;2023-04-15T05:20:10;2.93;;;2.67;;
8488;SDS011;4281;45.772;12.852;2023-04-15T05:22:39;3.00;;;2.33;;
8488;SDS011;4281;45.772;12.852;2023-04-15T05:25:07;3.23;;;2.77;;
8488;SDS011;4281;45.772;12.852;2023-04-15T05:27:36;2.40;;;2.20;;
8488;SDS011;4281;45.772;12.852;2023-04-15T05:30:04;3.17;;;2.80;;
8488;SDS011;4281;45.772;12.852;2023-04-15T05:32:34;3.93;;;3.17;;
8488;SDS011;4281;45.772;12.852;2023-04-15T05:35:02;3.93;;;2.77;;
8488;SDS011;4281;45.772;12.852;2023-04-15T05:37:30;4.33;;;2.50;;
8488;SDS011;4281;45.772;12.852;2023-04-15T05:39:57;4.57;;;2.70;;
8488;SDS011;4281;45.772;12.852;2023-04-15T05:42:25;4.00;;;3.00;;
8488;SDS011;4281;45.772;12.852;2023-04-15T05:44:54;3.27;;;2.97;;
8488;SDS011;4281;45.772;12.852;2023-04-15T05:47:22;3.90;;;2.90;;
8488;SDS011;4281;45.772;12.852;2023-04-15T05:49:50;2.83;;;2.60;;
8488;SDS011;4281;45.772;12.852;2023-04-15T05:52:18;3.30;;;3.00;;
8488;SDS011;4281;45.772;12.852;2023-04-15T05:54:46;3.00;;;2.80;;
8488;SDS011;4281;45.772;12.852;2023-04-15T05:57:13;2.70;;;2.50;;
8488;SDS011;4281;45.772;12.852;2023-04-15T05:59:41;3.87;;;3.50;;
8488;SDS011;4281;45.772;12.852;2023-04-15T06:02:11;3.67;;;3.27;;
8488;SDS011;4281;45.772;12.852;2023-04-15T06:04:39;3.10;;;2.80;;
8488;SDS011;4281;45.772;12.852;2023-04-15T06:07:08;3.20;;;2.90;;
8488;SDS011;4281;45.772;12.852;2023-04-15T06:09:36;3.10;;;2.90;;
8488;SDS011;4281;45.772;12.852;2023-04-15T06:12:03;2.73;;;2.53;;
8488;SDS011;4281;45.772;12.852;2023-04-15T06:14:37;2.80;;;2.60;;
8488;SDS011;4281;45.772;12.852;2023-04-15T06:17:05;2.60;;;2.40;;
8488;SDS011;4281;45.772;12.852;2023-04-15T06:19:35;2.80;;;2.50;;
8488;SDS011;4281;45.772;12.852;2023-04-15T06:22:03;2.60;;;2.40;;
8488;SDS011;4281;45.772;12.852;2023-04-15T06:24:32;2.67;;;2.30;;
8488;SDS011;4281;45.772;12.852;2023-04-15T06:27:02;2.83;;;2.47;;
8488;SDS011;4281;45.772;12.852;2023-04-15T06:29:30;2.50;;;2.30;;
8488;SDS011;4281;45.772;12.852;2023-04-15T06:31:57;2.60;;;2.40;;
8488;SDS011;4281;45.772;12.852;2023-04-15T06:34:25;3.57;;;2.40;;
8488;SDS011;4281;45.772;12.852;2023-04-15T06:36:54;2.57;;;2.37;;
8488;SDS011;4281;45.772;12.852;2023-04-15T06:39:22;2.30;;;2.10;;
8488;SDS011;4281;45.772;12.852;2023-04-15T06:41:50;2.63;;;2.10;;
8488;SDS011;4281;45.772;12.852;2023-04-15T06:44:18;2.20;;;2.00;;
8488;SDS011;4281;45.772;12.852;2023-04-15T06:46:46;2.53;;;2.20;;
8488;SDS011;4281;45.772;12.852;2023-04-15T06:49:13;2.63;;;2.07;;
8488;SDS011;4281;45.772;12.852;2023-04-15T06:51:41;3.37;;;2.23;;
8488;SDS011;4281;45.772;12.852;2023-04-15T06:54:10;2.30;;;2.10;;
8488;SDS011;4281;45.772;12.852;2023-04-15T06:56:38;2.53;;;2.13;;
8488;SDS011;4281;45.772;12.852;2023-04-15T06:59:07;2.00;;;1.80;;
8488;SDS011;4281;45.772;12.852;2023-04-15T07:01:35;2.43;;;2.20;;
8488;SDS011;4281;45.772;12.852;2023-04-15T07:04:03;2.20;;;2.00;;
8488;SDS011;4281;45.772;12.852;2023-04-15T07:06:30;2.33;;;1.90;;
8488;SDS011;4281;45.772;12.852;2023-04-15T07:08:59;2.00;;;1.90;;
8488;SDS011;4281;45.772;12.852;2023-04-15T07:11:28;2.30;;;2.13;;
8488;SDS011;4281;45.772;12.852;2023-04-15T07:13:56;2.83;;;1.80;;
8488;SDS011;4281;45.772;12.852;2023-04-15T07:16:24;1.90;;;1.80;;
8488;SDS011;4281;45.772;12.852;2023-04-15T07:18:55;1.90;;;1.70;;
8488;SDS011;4281;45.772;12.852;2023-04-15T07:21:23;3.13;;;1.80;;
8488;SDS011;4281;45.772;12.852;2023-04-15T07:23:50;2.30;;;1.70;;
8488;SDS011;4281;45.772;12.852;2023-04-15T07:26:18;1.57;;;1.47;;
8488;SDS011;4281;45.772;12.852;2023-04-15T07:28:48;2.47;;;1.80;;
8488;SDS011;4281;45.772;12.852;2023-04-15T07:31:15;2.30;;;2.10;;
8488;SDS011;4281;45.772;12.852;2023-04-15T07:33:43;2.13;;;1.60;;
8488;SDS011;4281;45.772;12.852;2023-04-15T07:36:11;1.67;;;1.53;;
8488;SDS011;4281;45.772;12.852;2023-04-15T07:38:39;1.90;;;1.80;;
8488;SDS011;4281;45.772;12.852;2023-04-15T07:41:07;2.60;;;1.70;;
8488;SDS011;4281;45.772;12.852;2023-04-15T07:43:35;1.90;;;1.70;;
8488;SDS011;4281;45.772;12.852;2023-04-15T07:46:05;2.10;;;1.90;;
8488;SDS011;4281;45.772;12.852;2023-04-15T07:48:33;2.30;;;1.80;;
8488;SDS011;4281;45.772;12.852;2023-04-15T07:51:03;1.50;;;1.30;;
8488;SDS011;4281;45.772;12.852;2023-04-15T07:53:31;2.30;;;1.50;;
8488;SDS011;4281;45.772;12.852;2023-04-15T07:55:59;1.67;;;1.40;;
8488;SDS011;4281;45.772;12.852;2023-04-15T07:58:27;1.83;;;1.50;;
8488;SDS011;4281;45.772;12.852;2023-04-15T08:00:55;1.90;;;1.63;;
8488;SDS011;4281;45.772;12.852;2023-04-15T08:03:25;2.00;;;1.30;;
8488;SDS011;4281;45.772;12.852;2023-04-15T08:05:53;4.10;;;1.53;;
8488;SDS011;4281;45.772;12.852;2023-04-15T08:08:21;1.50;;;1.40;;
8488;SDS011;4281;45.772;12.852;2023-04-15T08:10:48;1.63;;;1.20;;
8488;SDS011;4281;45.772;12.852;2023-04-15T08:13:18;2.67;;;1.40;;
8488;SDS011;4281;45.772;12.852;2023-04-15T08:15:52;1.77;;;1.50;;
8488;SDS011;4281;45.772;12.852;2023-04-15T08:18:21;1.93;;;1.43;;
8488;SDS011;4281;45.772;12.852;2023-04-15T08:20:50;1.60;;;1.17;;
8488;SDS011;4281;45.772;12.852;2023-04-15T08:23:18;2.03;;;1.30;;
8488;SDS011;4281;45.772;12.852;2023-04-15T08:25:47;1.27;;;1.13;;
8488;SDS011;4281;45.772;12.852;2023-04-15T08:28:16;2.33;;;1.40;;
8488;SDS011;4281;45.772;12.852;2023-04-15T08:30:44;2.60;;;1.53;;
8488;SDS011;4281;45.772;12.852;2023-04-15T08:33:12;1.67;;;1.40;;
8488;SDS011;4281;45.772;12.852;2023-04-15T08:35:39;2.13;;;1.80;;
8488;SDS011;4281;45.772;12.852;2023-04-15T08:38:09;3.00;;;1.50;;
8488;SDS011;4281;45.772;12.852;2023-04-15T08:40:39;1.93;;;1.50;;
8488;SDS011;4281;45.772;12.852;2023-04-15T08:43:08;2.90;;;1.63;;
8488;SDS011;4281;45.772;12.852;2023-04-15T08:45:38;1.97;;;1.23;;
8488;SDS011;4281;45.772;12.852;2023-04-15T08:48:05;2.07;;;1.40;;
8488;SDS011;4281;45.772;12.852;2023-04-15T08:50:34;2.33;;;1.50;;
8488;SDS011;4281;45.772;12.852;2023-04-15T08:53:02;2.67;;;1.50;;
8488;SDS011;4281;45.772;12.852;2023-04-15T08:55:31;2.13;;;1.50;;
8488;SDS011;4281;45.772;12.852;2023-04-15T08:58:01;2.33;;;1.40;;
8488;SDS011;4281;45.772;12.852;2023-04-15T09:00:29;2.60;;;1.30;;
8488;SDS011;4281;45.772;12.852;2023-04-15T09:02:57;2.30;;;1.43;;
8488;SDS011;4281;45.772;12.852;2023-04-15T09:05:28;2.33;;;1.47;;
8488;SDS011;4281;45.772;12.852;2023-04-15T09:07:58;1.60;;;1.23;;
8488;SDS011;4281;45.772;12.852;2023-04-15T09:10:26;2.50;;;1.30;;
8488;SDS011;4281;45.772;12.852;2023-04-15T09:12:56;1.73;;;1.07;;
8488;SDS011;4281;45.772;12.852;2023-04-15T09:15:24;1.87;;;1.07;;
8488;SDS011;4281;45.772;12.852;2023-04-15T09:17:52;2.13;;;1.50;;
8488;SDS011;4281;45.772;12.852;2023-04-15T09:20:20;1.60;;;1.13;;
8488;SDS011;4281;45.772;12.852;2023-04-15T09:22:48;3.43;;;1.50;;
8488;SDS011;4281;45.772;12.852;2023-04-15T09:25:27;1.40;;;1.30;;
8488;SDS011;4281;45.772;12.852;2023-04-15T09:27:59;2.70;;;1.40;;
8488;SDS011;4281;45.772;12.852;2023-04-15T09:30:28;1.40;;;1.30;;
8488;SDS011;4281;45.772;12.852;2023-04-15T09:32:57;2.00;;;1.70;;
8488;SDS011;4281;45.772;12.852;2023-04-15T09:35:25;3.77;;;1.90;;
8488;SDS011;4281;45.772;12.852;2023-04-15T09:38:00;3.20;;;1.50;;
8488;SDS011;4281;45.772;12.852;2023-04-15T09:40:33;4.03;;;1.90;;
8488;SDS011;4281;45.772;12.852;2023-04-15T09:43:03;2.93;;;1.60;;
8488;SDS011;4281;45.772;12.852;2023-04-15T09:45:32;1.97;;;1.63;;
8488;SDS011;4281;45.772;12.852;2023-04-15T09:48:13;1.90;;;1.47;;
8488;SDS011;4281;45.772;12.852;2023-04-15T09:50:43;2.13;;;1.47;;
8488;SDS011;4281;45.772;12.852;2023-04-15T09:53:14;3.10;;;1.63;;
8488;SDS011;4281;45.772;12.852;2023-04-15T09:55:44;4.50;;;1.83;;
8488;SDS011;4281;45.772;12.852;2023-04-15T09:58:20;4.50;;;1.90;;
8488;SDS011;4281;45.772;12.852;2023-04-15T10:00:49;1.70;;;1.30;;
8488;SDS011;4281;45.772;12.852;2023-04-15T10:03:19;2.47;;;1.50;;
8488;SDS011;4281;45.772;12.852;2023-04-15T10:05:49;3.00;;;1.50;;
8488;SDS011;4281;45.772;12.852;2023-04-15T10:08:18;1.40;;;1.20;;
8488;SDS011;4281;45.772;12.852;2023-04-15T10:10:48;2.07;;;1.40;;
8488;SDS011;4281;45.772;12.852;2023-04-15T10:13:19;2.20;;;1.40;;
8488;SDS011;4281;45.772;12.852;2023-04-15T10:15:50;1.83;;;1.47;;
8488;SDS011;4281;45.772;12.852;2023-04-15T10:18:20;3.33;;;1.60;;
8488;SDS011;4281;45.772;12.852;2023-04-15T10:20:50;2.70;;;1.90;;
8488;SDS011;4281;45.772;12.852;2023-04-15T10:23:18;2.53;;;1.60;;
8488;SDS011;4281;45.772;12.852;2023-04-15T10:25:47;2.10;;;1.43;;
8488;SDS011;4281;45.772;12.852;2023-04-15T10:28:15;1.80;;;1.70;;
8488;SDS011;4281;45.772;12.852;2023-04-15T10:30:44;3.20;;;1.60;;
8488;SDS011;4281;45.772;12.852;2023-04-15T10:33:13;2.27;;;1.57;;
8488;SDS011;4281;45.772;12.852;2023-04-15T10:35:42;1.90;;;1.60;;
8488;SDS011;4281;45.772;12.852;2023-04-15T10:43:49;1.50;;;1.40;;
8488;SDS011;4281;45.772;12.852;2023-04-15T10:46:20;3.23;;;1.70;;
8488;SDS011;4281;45.772;12.852;2023-04-15T10:48:49;2.73;;;1.43;;
8488;SDS011;4281;45.772;12.852;2023-04-15T10:51:27;2.57;;;1.73;;
8488;SDS011;4281;45.772;12.852;2023-04-15T10:53:57;2.13;;;1.47;;
8488;SDS011;4281;45.772;12.852;2023-04-15T10:56:27;3.70;;;1.70;;
8488;SDS011;4281;45.772;12.852;2023-04-15T10:58:57;3.27;;;1.50;;
8488;SDS011;4281;45.772;12.852;2023-04-15T11:07:38;2.53;;;1.40;;
8488;SDS011;4281;45.772;12.852;2023-04-15T11:13:21;3.60;;;1.40;;
8488;SDS011;4281;45.772;12.852;2023-04-15T11:15:58;2.77;;;1.57;;
8488;SDS011;4281;45.772;12.852;2023-04-15T11:18:31;2.03;;;1.50;;
8488;SDS011;4281;45.772;12.852;2023-04-15T11:21:04;4.10;;;1.37;;
8488;SDS011;4281;45.772;12.852;2023-04-15T11:23:34;1.93;;;1.33;;
8488;SDS011;4281;45.772;12.852;2023-04-15T11:26:04;3.10;;;1.50;;
8488;SDS011;4281;45.772;12.852;2023-04-15T11:28:35;1.53;;;1.07;;
8488;SDS011;4281;45.772;12.852;2023-04-15T11:31:04;2.53;;;1.10;;
8488;SDS011;4281;45.772;12.852;2023-04-15T11:33:35;3.13;;;1.40;;
8488;SDS011;4281;45.772;12.852;2023-04-15T11:36:03;2.93;;;1.30;;
8488;SDS011;4281;45.772;12.852;2023-04-15T11:38:31;5.50;;;1.90;;
8488;SDS011;4281;45.772;12.852;2023-04-15T11:41:02;2.97;;;1.20;;
8488;SDS011;4281;45.772;12.852;2023-04-15T11:43:30;2.93;;;1.33;;
8488;SDS011;4281;45.772;12.852;2023-04-15T11:46:01;3.27;;;1.50;;
8488;SDS011;4281;45.772;12.852;2023-04-15T11:48:30;3.40;;;1.50;;
8488;SDS011;4281;45.772;12.852;2023-04-15T11:51:01;2.10;;;1.37;;
8488;SDS011;4281;45.772;12.852;2023-04-15T11:53:36;3.97;;;1.60;;
8488;SDS011;4281;45.772;12.852;2023-04-15T11:56:06;4.10;;;1.60;;
8488;SDS011;4281;45.772;12.852;2023-04-15T11:58:35;3.27;;;1.50;;
8488;SDS011;4281;45.772;12.852;2023-04-15T12:01:05;2.73;;;1.30;;
8488;SDS011;4281;45.772;12.852;2023-04-15T12:03:37;3.23;;;1.60;;
8488;SDS011;4281;45.772;12.852;2023-04-15T12:06:08;4.93;;;2.03;;
8488;SDS011;4281;45.772;12.852;2023-04-15T12:11:37;3.23;;;1.50;;
8488;SDS011;4281;45.772;12.852;2023-04-15T12:14:15;3.17;;;1.30;;
8488;SDS011;4281;45.772;12.852;2023-04-15T12:16:46;4.10;;;1.40;;
8488;SDS011;4281;45.772;12.852;2023-04-15T12:19:18;4.33;;;1.67;;
8488;SDS011;4281;45.772;12.852;2023-04-15T12:21:58;3.60;;;1.27;;
8488;SDS011;4281;45.772;12.852;2023-04-15T12:24:27;3.67;;;1.50;;
8488;SDS011;4281;45.772;12.852;2023-04-15T12:27:00;3.67;;;1.57;;
8488;SDS011;4281;45.772;12.852;2023-04-15T12:29:29;4.60;;;1.50;;
8488;SDS011;4281;45.772;12.852;2023-04-15T12:31:58;3.63;;;1.30;;
8488;SDS011;4281;45.772;12.852;2023-04-15T12:34:31;4.07;;;1.33;;
8488;SDS011;4281;45.772;12.852;2023-04-15T12:37:03;3.10;;;1.23;;
8488;SDS011;4281;45.772;12.852;2023-04-15T12:39:33;2.80;;;1.30;;
8488;SDS011;4281;45.772;12.852;2023-04-15T12:42:02;3.07;;;1.30;;
8488;SDS011;4281;45.772;12.852;2023-04-15T12:44:31;3.77;;;1.63;;
8488;SDS011;4281;45.772;12.852;2023-04-15T12:46:59;4.40;;;2.47;;
8488;SDS011;4281;45.772;12.852;2023-04-15T12:49:27;4.73;;;2.07;;
8488;SDS011;4281;45.772;12.852;2023-04-15T12:51:55;2.93;;;1.73;;
8488;SDS011;4281;45.772;12.852;2023-04-15T12:54:26;3.80;;;1.57;;
8488;SDS011;4281;45.772;12.852;2023-04-15T12:56:55;4.40;;;1.60;;
8488;SDS011;4281;45.772;12.852;2023-04-15T12:59:23;2.20;;;1.30;;
8488;SDS011;4281;45.772;12.852;2023-04-15T13:01:51;3.03;;;1.17;;
8488;SDS011;4281;45.772;12.852;2023-04-15T13:04:19;3.43;;;1.30;;
8488;SDS011;4281;45.772;12.852;2023-04-15T13:06:48;2.73;;;1.20;;
8488;SDS011;4281;45.772;12.852;2023-04-15T13:09:16;2.30;;;0.90;;
8488;SDS011;4281;45.772;12.852;2023-04-15T13:11:45;3.57;;;1.30;;
8488;SDS011;4281;45.772;12.852;2023-04-15T13:14:13;2.30;;;1.10;;
8488;SDS011;4281;45.772;12.852;2023-04-15T13:16:41;2.80;;;1.10;;
8488;SDS011;4281;45.772;12.852;2023-04-15T13:19:09;2.00;;;1.10;;
8488;SDS011;4281;45.772;12.852;2023-04-15T13:21:38;3.23;;;1.00;;
8488;SDS011;4281;45.772;12.852;2023-04-15T13:24:05;2.37;;;1.07;;
8488;SDS011;4281;45.772;12.852;2023-04-15T13:26:34;2.53;;;1.10;;
8488;SDS011;4281;45.772;12.852;2023-04-15T13:29:04;2.27;;;1.00;;
8488;SDS011;4281;45.772;12.852;2023-04-15T13:31:32;3.87;;;1.20;;
8488;SDS011;4281;45.772;12.852;2023-04-15T13:34:00;1.73;;;1.00;;
8488;SDS011;4281;45.772;12.852;2023-04-15T13:36:28;3.33;;;1.10;;
8488;SDS011;4281;45.772;12.852;2023-04-15T13:38:56;2.73;;;1.10;;
8488;SDS011;4281;45.772;12.852;2023-04-15T13:41:25;2.10;;;1.10;;
8488;SDS011;4281;45.772;12.852;2023-04-15T13:43:53;3.53;;;1.00;;
8488;SDS011;4281;45.772;12.852;2023-04-15T13:46:22;3.20;;;1.30;;
8488;SDS011;4281;45.772;12.852;2023-04-15T13:48:52;2.40;;;1.17;;
8488;SDS011;4281;45.772;12.852;2023-04-15T13:51:21;3.17;;;1.23;;
8488;SDS011;4281;45.772;12.852;2023-04-15T13:53:51;2.40;;;1.10;;
8488;SDS011;4281;45.772;12.852;2023-04-15T13:56:19;2.50;;;1.20;;
8488;SDS011;4281;45.772;12.852;2023-04-15T13:58:46;2.73;;;1.13;;
8488;SDS011;4281;45.772;12.852;2023-04-15T14:01:14;2.87;;;1.50;;
8488;SDS011;4281;45.772;12.852;2023-04-15T14:03:44;4.97;;;1.70;;
8488;SDS011;4281;45.772;12.852;2023-04-15T14:06:13;4.70;;;1.80;;
8488;SDS011;4281;45.772;12.852;2023-04-15T14:08:41;6.70;;;1.90;;
8488;SDS011;4281;45.772;12.852;2023-04-15T14:11:10;3.50;;;1.77;;
8488;SDS011;4281;45.772;12.852;2023-04-15T14:13:37;3.93;;;2.20;;
8488;SDS011;4281;45.772;12.852;2023-04-15T14:16:06;5.63;;;2.60;;
8488;SDS011;4281;45.772;12.852;2023-04-15T14:18:34;5.87;;;2.60;;
8488;SDS011;4281;45.772;12.852;2023-04-15T14:21:04;5.03;;;2.00;;
8488;SDS011;4281;45.772;12.852;2023-04-15T14:23:32;5.87;;;2.00;;
8488;SDS011;4281;45.772;12.852;2023-04-15T14:26:00;5.60;;;2.40;;
8488;SDS011;4281;45.772;12.852;2023-04-15T14:28:28;5.23;;;2.63;;
8488;SDS011;4281;45.772;12.852;2023-04-15T14:30:55;8.00;;;3.50;;
8488;SDS011;4281;45.772;12.852;2023-04-15T14:33:23;5.90;;;2.77;;
8488;SDS011;4281;45.772;12.852;2023-04-15T14:35:51;7.40;;;2.90;;
8488;SDS011;4281;45.772;12.852;2023-04-15T14:38:20;6.73;;;2.80;;
8488;SDS011;4281;45.772;12.852;2023-04-15T14:40:48;5.17;;;2.80;;
8488;SDS011;4281;45.772;12.852;2023-04-15T14:43:16;4.90;;;3.00;;
8488;SDS011;4281;45.772;12.852;2023-04-15T14:45:44;4.93;;;3.00;;
8488;SDS011;4281;45.772;12.852;2023-04-15T14:48:12;5.73;;;3.10;;
8488;SDS011;4281;45.772;12.852;2023-04-15T14:50:41;4.37;;;2.50;;
8488;SDS011;4281;45.772;12.852;2023-04-15T14:53:09;3.27;;;2.10;;
8488;SDS011;4281;45.772;12.852;2023-04-15T14:55:38;3.50;;;1.80;;
8488;SDS011;4281;45.772;12.852;2023-04-15T14:58:06;3.77;;;2.03;;
8488;SDS011;4281;45.772;12.852;2023-04-15T15:00:34;2.90;;;2.10;;
8488;SDS011;4281;45.772;12.852;2023-04-15T15:03:04;3.83;;;1.70;;
8488;SDS011;4281;45.772;12.852;2023-04-15T15:05:37;3.17;;;1.47;;
8488;SDS011;4281;45.772;12.852;2023-04-15T15:08:07;2.97;;;1.43;;
8488;SDS011;4281;45.772;12.852;2023-04-15T15:10:35;2.83;;;1.20;;
8488;SDS011;4281;45.772;12.852;2023-04-15T15:13:16;1.40;;;1.07;;
8488;SDS011;4281;45.772;12.852;2023-04-15T15:15:44;1.80;;;1.20;;
8488;SDS011;4281;45.772;12.852;2023-04-15T15:18:14;1.87;;;1.37;;
8488;SDS011;4281;45.772;12.852;2023-04-15T15:20:44;1.87;;;1.20;;
8488;SDS011;4281;45.772;12.852;2023-04-15T15:23:13;2.23;;;1.20;;
8488;SDS011;4281;45.772;12.852;2023-04-15T15:25:41;1.77;;;1.10;;
8488;SDS011;4281;45.772;12.852;2023-04-15T15:28:09;3.23;;;1.40;;
8488;SDS011;4281;45.772;12.852;2023-04-15T15:30:39;1.87;;;0.97;;